createdAt,value
2023-04-26T00:01:14.653Z,99.90
2023-04-26T00:04:39.011Z,99.90
2023-04-26T00:08:04.036Z,99.90
2023-04-26T00:11:27.559Z,99.90
2023-04-26T00:14:52.653Z,99.90
2023-04-26T00:18:16.985Z,99.90
2023-04-26T00:21:40.981Z,99.90
2023-04-26T00:25:04.792Z,99.90
2023-04-26T00:28:31.329Z,99.90
2023-04-26T00:31:57.284Z,99.90
2023-04-26T00:35:21.813Z,99.90
2023-04-26T00:38:45.724Z,99.90
2023-04-26T00:42:09.320Z,99.90
2023-04-26T00:45:33.072Z,99.90
2023-04-26T00:48:58.785Z,99.90
2023-04-26T00:52:22.765Z,99.90
2023-04-26T00:55:46.500Z,99.90
2023-04-26T00:59:10.228Z,99.90
2023-04-26T01:02:34.782Z,99.90
2023-04-26T01:06:01.089Z,99.90
2023-04-26T01:09:28.474Z,99.90
2023-04-26T01:12:55.239Z,99.90
2023-04-26T01:16:21.791Z,99.90
2023-04-26T01:19:55.759Z,99.90
2023-04-26T01:23:21.051Z,99.90
2023-04-26T01:26:45.806Z,99.90
2023-04-26T01:30:12.487Z,99.90
2023-04-26T01:33:36.104Z,99.90
2023-04-26T01:37:01.364Z,99.90
2023-04-26T01:40:26.623Z,99.90
2023-04-26T01:43:50.343Z,99.90
2023-04-26T01:47:15.140Z,99.90
2023-04-26T01:50:39.774Z,99.90
2023-04-26T01:54:03.474Z,99.90
2023-04-26T01:57:30.331Z,99.90
2023-04-26T02:00:53.881Z,99.90
2023-04-26T02:04:18.663Z,99.90
2023-04-26T02:07:42.279Z,99.90
2023-04-26T02:11:05.920Z,99.90
2023-04-26T02:14:30.934Z,99.90
2023-04-26T02:17:55.771Z,99.90
2023-04-26T02:21:19.464Z,99.90
2023-04-26T02:24:43.670Z,99.90
2023-04-26T02:28:08.347Z,99.90
2023-04-26T02:31:33.350Z,99.90
2023-04-26T02:34:57.010Z,99.90
2023-04-26T02:38:20.609Z,99.90
2023-04-26T02:41:44.371Z,99.90
2023-04-26T02:45:09.702Z,99.90
2023-04-26T02:48:34.874Z,99.90
2023-04-26T02:51:58.809Z,99.90
2023-04-26T02:55:23.102Z,99.90
2023-04-26T02:58:47.878Z,99.90
2023-04-26T03:02:13.082Z,99.90
2023-04-26T03:05:38.893Z,99.90
2023-04-26T03:09:02.811Z,99.90
2023-04-26T03:12:26.463Z,99.90
2023-04-26T03:15:52.420Z,99.90
2023-04-26T03:19:16.901Z,99.90
2023-04-26T03:22:42.337Z,99.90
2023-04-26T03:26:06.346Z,99.90
2023-04-26T03:29:30.867Z,99.90
2023-04-26T03:32:54.765Z,99.90
2023-04-26T03:36:19.104Z,99.90
2023-04-26T03:39:45.300Z,99.90
2023-04-26T03:43:08.952Z,99.90
2023-04-26T03:46:32.972Z,99.90
2023-04-26T03:49:57.447Z,99.90
2023-04-26T03:53:22.577Z,99.90
2023-04-26T03:56:48.189Z,99.90
2023-04-26T04:00:14.230Z,99.90
2023-04-26T04:03:41.697Z,99.90
2023-04-26T04:07:07.543Z,99.90
2023-04-26T04:10:31.644Z,99.90
2023-04-26T04:13:58.250Z,99.90
2023-04-26T04:17:22.129Z,99.90
2023-04-26T04:20:47.133Z,99.90
2023-04-26T04:24:11.489Z,99.90
2023-04-26T04:27:36.768Z,99.90
2023-04-26T04:31:02.005Z,99.90
2023-04-26T04:34:26.134Z,99.90
2023-04-26T04:37:51.498Z,99.90
2023-04-26T04:41:15.542Z,99.90
2023-04-26T04:44:40.041Z,99.90
2023-04-26T04:48:06.549Z,99.90
2023-04-26T04:51:30.871Z,99.90
2023-04-26T04:54:54.494Z,99.90
2023-04-26T04:58:18.290Z,99.90
2023-04-26T05:01:41.936Z,99.90
2023-04-26T05:05:12.164Z,99.90
2023-04-26T05:08:36.288Z,99.90
2023-04-26T05:12:03.216Z,99.90
2023-04-26T05:15:27.981Z,99.90
2023-04-26T05:18:51.672Z,99.90
2023-04-26T05:22:18.691Z,99.90
2023-04-26T05:25:43.924Z,99.90
2023-04-26T05:29:26.256Z,99.90
2023-04-26T05:33:01.215Z,99.90
2023-04-26T05:36:32.197Z,99.90
2023-04-26T05:39:57.206Z,99.90
2023-04-26T05:43:20.980Z,99.90
2023-04-26T05:46:44.825Z,99.90
2023-04-26T05:50:09.705Z,99.90
2023-04-26T05:53:34.171Z,99.90
2023-04-26T05:56:59.450Z,99.90
2023-04-26T06:00:24.983Z,99.40
2023-04-26T06:03:49.457Z,98.90
2023-04-26T06:07:16.015Z,97.70
2023-04-26T06:10:39.690Z,97.20
2023-04-26T06:14:04.964Z,96.70
2023-04-26T06:17:29.128Z,95.90
2023-04-26T06:20:56.893Z,93.90
2023-04-26T06:24:21.933Z,94.10
2023-04-26T06:27:46.101Z,93.40
2023-04-26T06:31:12.088Z,92.40
2023-04-26T06:34:40.073Z,92.20
2023-04-26T06:38:03.866Z,92.40
2023-04-26T06:41:28.016Z,91.40
2023-04-26T06:44:51.950Z,91.00
2023-04-26T06:48:20.295Z,91.30
2023-04-26T06:51:44.447Z,89.80
2023-04-26T06:55:10.197Z,87.80
2023-04-26T06:58:37.224Z,86.10
2023-04-26T07:02:03.777Z,86.20
2023-04-26T07:05:29.560Z,83.20
2023-04-26T07:08:54.452Z,79.00
2023-04-26T07:12:18.752Z,78.20
2023-04-26T07:15:43.343Z,76.60
2023-04-26T07:19:07.362Z,73.10
2023-04-26T07:22:33.472Z,71.60
2023-04-26T07:25:58.078Z,71.90
2023-04-26T07:29:22.105Z,71.20
2023-04-26T07:32:56.030Z,71.10
2023-04-26T07:36:27.240Z,70.00
2023-04-26T07:39:52.275Z,68.50
2023-04-26T07:43:16.456Z,67.10
2023-04-26T07:46:40.052Z,64.70
2023-04-26T07:50:03.629Z,61.30
2023-04-26T07:53:27.276Z,61.50
2023-04-26T07:56:52.148Z,59.30
2023-04-26T08:00:17.393Z,59.00
2023-04-26T08:03:41.138Z,56.30
2023-04-26T08:07:04.854Z,56.70
2023-04-26T08:10:28.668Z,56.90
2023-04-26T08:13:54.033Z,58.70
2023-04-26T08:17:17.912Z,57.70
2023-04-26T08:20:41.926Z,57.80
2023-04-26T08:24:05.874Z,58.20
2023-04-26T08:27:29.513Z,54.80
2023-04-26T08:30:54.538Z,55.60
2023-04-26T08:34:18.222Z,57.80
2023-04-26T08:37:41.763Z,56.10
2023-04-26T08:41:06.517Z,54.30
2023-04-26T08:44:30.736Z,54.10
2023-04-26T08:48:03.910Z,54.30
2023-04-26T08:51:29.101Z,53.20
2023-04-26T08:54:53.789Z,51.60
2023-04-26T08:58:19.256Z,50.20
2023-04-26T09:01:45.416Z,46.50
2023-04-26T09:05:11.881Z,43.00
2023-04-26T09:08:41.663Z,43.70
2023-04-26T09:12:05.835Z,43.80
2023-04-26T09:15:29.811Z,44.20
2023-04-26T09:18:57.266Z,46.10
2023-04-26T09:22:31.210Z,45.80
2023-04-26T09:25:54.907Z,46.50
2023-04-26T09:29:20.479Z,49.20
2023-04-26T09:32:52.593Z,49.20
2023-04-26T09:36:16.527Z,51.70
2023-04-26T09:39:42.936Z,53.70
2023-04-26T09:43:08.041Z,55.60
2023-04-26T09:46:31.604Z,55.70
2023-04-26T09:49:56.655Z,56.60
2023-04-26T09:53:28.498Z,56.60
2023-04-26T09:57:02.691Z,57.40
2023-04-26T10:00:27.235Z,59.30
2023-04-26T10:03:51.413Z,62.70
2023-04-26T10:07:16.374Z,66.30
2023-04-26T10:10:41.168Z,70.40
2023-04-26T10:14:06.878Z,73.70
2023-04-26T10:17:32.292Z,75.80
2023-04-26T10:21:00.239Z,76.90
2023-04-26T10:24:24.933Z,76.80
2023-04-26T10:27:49.973Z,77.50
2023-04-26T10:31:15.025Z,75.30
2023-04-26T10:34:39.001Z,73.00
2023-04-26T10:38:12.161Z,71.90
2023-04-26T10:41:38.381Z,70.10
2023-04-26T10:45:28.607Z,70.10
2023-04-26T10:48:53.861Z,69.90
2023-04-26T10:52:20.303Z,68.80
2023-04-26T10:55:44.285Z,69.90
2023-04-26T11:03:12.655Z,68.50
2023-04-26T11:06:51.380Z,68.50
2023-04-26T11:10:24.141Z,67.50
2023-04-26T11:13:48.611Z,67.40
2023-04-26T11:17:13.133Z,66.50
2023-04-26T11:20:36.744Z,64.90
2023-04-26T11:24:01.946Z,64.10
2023-04-26T11:27:28.954Z,65.60
2023-04-26T11:30:52.582Z,65.50
2023-04-26T11:34:16.591Z,66.00
2023-04-26T11:37:40.142Z,66.20
2023-04-26T11:41:05.439Z,65.10
2023-04-26T11:44:29.071Z,64.70
2023-04-26T11:47:52.941Z,64.30
2023-04-26T11:51:16.775Z,64.20
2023-04-26T11:54:40.426Z,65.20
2023-04-26T11:58:11.396Z,64.60
2023-04-26T12:01:34.950Z,63.10
2023-04-26T12:05:01.827Z,62.60
2023-04-26T12:08:26.628Z,61.10
2023-04-26T12:11:55.074Z,62.10
2023-04-26T12:15:23.403Z,62.80
2023-04-26T12:18:52.632Z,63.20
2023-04-26T12:22:22.866Z,62.70
2023-04-26T12:25:54.848Z,62.60
2023-04-26T12:29:18.587Z,59.90
2023-04-26T12:32:43.589Z,57.00
2023-04-26T12:36:08.758Z,54.60
2023-04-26T12:39:32.319Z,55.50
2023-04-26T12:42:57.131Z,55.80
2023-04-26T12:46:20.810Z,55.40
2023-04-26T12:49:45.734Z,56.70
2023-04-26T12:53:10.878Z,57.30
2023-04-26T12:56:37.880Z,58.80
2023-04-26T13:00:01.508Z,59.00
2023-04-26T13:03:25.331Z,60.30
2023-04-26T13:06:50.542Z,62.10
2023-04-26T13:10:14.365Z,63.30
2023-04-26T13:13:43.875Z,63.00
2023-04-26T13:17:09.441Z,62.20
2023-04-26T13:20:33.078Z,64.20
2023-04-26T13:23:58.149Z,64.00
2023-04-26T13:27:21.747Z,64.20
2023-04-26T13:30:45.345Z,64.90
2023-04-26T13:34:09.716Z,65.60
2023-04-26T13:37:33.300Z,66.10
2023-04-26T13:40:58.183Z,64.80
2023-04-26T13:44:21.967Z,63.30
2023-04-26T13:47:45.655Z,63.40
2023-04-26T13:51:09.344Z,64.00
2023-04-26T13:54:32.941Z,63.00
2023-04-26T13:57:58.186Z,65.00
2023-04-26T14:01:22.901Z,62.70
2023-04-26T14:04:46.773Z,61.20
2023-04-26T14:08:12.528Z,60.80
2023-04-26T14:11:36.591Z,60.70
2023-04-26T14:15:02.731Z,60.20
2023-04-26T14:18:26.660Z,61.60
2023-04-26T14:21:50.291Z,62.30
2023-04-26T14:25:14.048Z,62.80
2023-04-26T14:28:37.718Z,63.00
2023-04-26T14:32:03.171Z,64.00
2023-04-26T14:35:27.050Z,62.70
2023-04-26T14:38:51.255Z,62.50
2023-04-26T14:42:15.080Z,63.50
2023-04-26T14:45:44.430Z,63.30
2023-04-26T14:49:09.692Z,63.50
2023-04-26T14:52:35.921Z,63.50
2023-04-26T14:56:00.187Z,60.70
2023-04-26T14:59:23.881Z,61.40
2023-04-26T15:02:48.042Z,63.20
2023-04-26T15:06:13.874Z,62.40
2023-04-26T15:09:37.621Z,63.50
2023-04-26T15:13:01.232Z,64.30
2023-04-26T15:16:24.915Z,63.20
2023-04-26T15:19:48.480Z,63.00
2023-04-26T15:23:13.497Z,62.50
2023-04-26T15:26:37.052Z,62.50
2023-04-26T15:30:01.021Z,61.30
2023-04-26T15:33:24.673Z,61.60
2023-04-26T15:36:48.220Z,61.70
2023-04-26T15:40:13.866Z,59.70
2023-04-26T15:43:37.629Z,58.60
2023-04-26T15:47:02.433Z,58.90
2023-04-26T15:50:26.107Z,59.50
2023-04-26T15:53:51.581Z,60.30
2023-04-26T15:57:16.496Z,61.50
2023-04-26T16:00:41.950Z,61.00
2023-04-26T16:04:05.860Z,61.00
2023-04-26T16:07:29.669Z,61.70
2023-04-26T16:10:53.209Z,60.30
2023-04-26T16:14:18.111Z,59.60
2023-04-26T16:17:41.764Z,59.40
2023-04-26T16:21:06.047Z,59.40
2023-04-26T16:24:29.630Z,58.90
2023-04-26T16:27:53.160Z,59.10
2023-04-26T16:31:18.700Z,59.30
2023-04-26T16:34:42.564Z,59.80
2023-04-26T16:38:06.121Z,60.50
2023-04-26T16:41:29.705Z,60.70
2023-04-26T16:44:55.360Z,61.80
2023-04-26T16:48:20.566Z,61.40
2023-04-26T16:51:49.413Z,62.10
2023-04-26T16:55:13.228Z,63.30
2023-04-26T16:58:36.866Z,62.70
2023-04-26T17:02:00.638Z,62.40
2023-04-26T17:05:25.617Z,62.00
2023-04-26T17:08:49.563Z,62.00
2023-04-26T17:12:13.629Z,62.40
2023-04-26T17:15:37.244Z,62.70
2023-04-26T17:19:00.834Z,63.20
2023-04-26T17:22:25.951Z,63.60
2023-04-26T17:25:49.556Z,64.30
2023-04-26T17:29:13.112Z,64.20
2023-04-26T17:32:36.934Z,65.50
2023-04-26T17:36:01.681Z,64.80
2023-04-26T17:39:26.662Z,65.20
2023-04-26T17:42:50.214Z,65.40
2023-04-26T17:46:14.077Z,66.00
2023-04-26T17:49:37.667Z,67.70
2023-04-26T17:53:02.110Z,68.20
2023-04-26T17:56:27.815Z,68.50
2023-04-26T17:59:52.460Z,68.70
2023-04-26T18:03:17.217Z,68.90
2023-04-26T18:06:41.086Z,69.30
2023-04-26T18:10:05.504Z,69.30
2023-04-26T18:13:30.752Z,70.20
2023-04-26T18:16:54.449Z,69.90
2023-04-26T18:20:18.148Z,71.20
2023-04-26T18:23:42.141Z,72.10
2023-04-26T18:27:06.150Z,72.60
2023-04-26T18:30:31.135Z,73.70
2023-04-26T18:33:54.762Z,75.40
2023-04-26T18:37:18.428Z,76.60
2023-04-26T18:40:44.401Z,77.30
2023-04-26T18:44:11.766Z,78.20
2023-04-26T18:47:36.691Z,79.10
2023-04-26T18:51:00.366Z,80.30
2023-04-26T18:54:24.112Z,80.80
2023-04-26T18:57:47.734Z,81.30
2023-04-26T19:01:11.279Z,81.80
2023-04-26T19:04:36.326Z,83.10
2023-04-26T19:08:00.150Z,83.10
2023-04-26T19:11:23.684Z,81.50
2023-04-26T19:14:47.224Z,82.70
2023-04-26T19:18:11.166Z,82.60
2023-04-26T19:21:36.229Z,82.20
2023-04-26T19:25:00.986Z,82.20
2023-04-26T19:28:25.304Z,82.80
2023-04-26T19:31:48.974Z,82.40
2023-04-26T19:35:12.970Z,83.10
2023-04-26T19:38:38.318Z,83.20
2023-04-26T19:42:03.209Z,84.00
2023-04-26T19:45:26.973Z,84.30
2023-04-26T19:48:51.578Z,84.40
2023-04-26T19:52:15.152Z,84.50
2023-04-26T19:55:41.418Z,85.20
2023-04-26T19:59:05.268Z,85.40
2023-04-26T20:02:30.332Z,86.30
2023-04-26T20:05:54.256Z,86.20
2023-04-26T20:09:18.100Z,86.70
2023-04-26T20:12:43.066Z,87.10
2023-04-26T20:16:07.181Z,87.50
2023-04-26T20:19:31.050Z,87.90
2023-04-26T20:22:54.649Z,88.00
2023-04-26T20:26:18.485Z,88.70
2023-04-26T20:29:43.473Z,88.50
2023-04-26T20:33:07.114Z,89.10
2023-04-26T20:36:30.768Z,90.00
2023-04-26T20:39:54.417Z,90.60
2023-04-26T20:43:18.300Z,90.60
2023-04-26T20:46:43.223Z,90.60
2023-04-26T20:50:08.069Z,91.00
2023-04-26T20:53:32.136Z,91.30
2023-04-26T20:56:55.825Z,91.40
2023-04-26T21:00:20.210Z,91.40
2023-04-26T21:03:45.251Z,91.70
2023-04-26T21:07:09.147Z,92.00
2023-04-26T21:10:32.827Z,92.40
2023-04-26T21:13:57.519Z,92.50
2023-04-26T21:17:21.143Z,92.80
2023-04-26T21:20:46.027Z,93.10
2023-04-26T21:24:09.740Z,93.30
2023-04-26T21:27:33.734Z,93.60
2023-04-26T21:31:04.446Z,93.60
2023-04-26T21:34:28.112Z,93.70
2023-04-26T21:37:53.405Z,93.70
2023-04-26T21:41:16.943Z,94.10
2023-04-26T21:44:40.614Z,94.30
2023-04-26T21:48:04.740Z,94.20
2023-04-26T21:51:28.773Z,94.20
2023-04-26T21:54:53.648Z,94.30
2023-04-26T21:58:17.273Z,94.50
2023-04-26T22:01:41.217Z,94.90
2023-04-26T22:05:05.034Z,95.10
2023-04-26T22:08:28.643Z,95.40
2023-04-26T22:11:53.535Z,95.80
2023-04-26T22:15:17.081Z,96.00
2023-04-26T22:18:40.685Z,96.50
2023-04-26T22:22:04.229Z,96.90
2023-04-26T22:25:27.789Z,97.30
2023-04-26T22:28:52.876Z,97.70
2023-04-26T22:32:16.545Z,98.00
2023-04-26T22:35:40.153Z,98.20
2023-04-26T22:39:04.095Z,98.60
2023-04-26T22:42:27.766Z,98.80
2023-04-26T22:45:52.813Z,99.10
2023-04-26T22:49:16.529Z,99.30
2023-04-26T22:52:41.101Z,99.50
2023-04-26T22:56:06.677Z,99.80
2023-04-26T22:59:34.042Z,99.90
2023-04-26T23:02:58.969Z,99.90
2023-04-26T23:06:23.398Z,99.90
2023-04-26T23:09:47.415Z,99.90
2023-04-26T23:13:11.210Z,99.90
2023-04-26T23:16:35.255Z,99.90
2023-04-26T23:20:01.064Z,99.90
2023-04-26T23:23:24.723Z,99.90
2023-04-26T23:26:49.154Z,99.90
2023-04-26T23:30:14.544Z,99.90
2023-04-26T23:33:38.133Z,99.90
2023-04-26T23:37:06.995Z,99.90
2023-04-26T23:40:31.836Z,99.90
2023-04-26T23:43:56.232Z,99.90
2023-04-26T23:47:19.953Z,99.90
2023-04-26T23:50:43.869Z,99.90
2023-04-26T23:54:09.598Z,99.90
2023-04-26T23:57:33.186Z,99.90
